Robert Franco — WDG7687 — position and weather

sailwx.info

Track history (hours):
 
Tides and Currents Weather Stations Pressure Air Temp Water Temp Dewpoint Dewpoint Depression Visibility Wind Speed Wind Dir Waves Ship Positions

Robert Franco

Owner: Harley Marine Services, Inc, Seattle, WA. More information available from US FCC via Universal Licensing System and Coast Guard Vessel Documentation Center.

Last reported at 2017-Oct-19 07:39 UTC. Time now 2017-Oct-19 09:12 UTC.
Position N 33°44' W 118°13'.

Length 30 m; draft 5.7 m.

Type: Towing. MMSI: 367569830.

Date/timePositionNaut miles runAvg speedWind from/ knotsBaromVisibWave heightAir tempDewpointWater temp
2017-Oct-19 07:39N 33°44' W 118°13'2 6.9
2017-Oct-19 07:20N 33°44' W 118°16'0 0.2
2017-Oct-19 04:59N 33°43' W 118°16'2 5.2
2017-Oct-19 04:30N 33°46' W 118°16'3 3.7
2017-Oct-19 03:49N 33°43' W 118°16'1 1.8
2017-Oct-19 03:28N 33°44' W 118°16'1 3.0
2017-Oct-19 03:00N 33°45' W 118°16'0 0.3
2017-Oct-19 02:30N 33°45' W 118°16'0 0.7
2017-Oct-19 02:00N 33°45' W 118°16'2 4.5
2017-Oct-19 01:30N 33°43' W 118°16'2 3.4
2017-Oct-19 01:00N 33°43' W 118°14'2 4.3
2017-Oct-19 00:30N 33°45' W 118°13'1 1.5
2017-Oct-19 00:00N 33°46' W 118°13'1 1.8
2017-Oct-18 23:30N 33°45' W 118°13'2 4.9
2017-Oct-18 22:59N 33°44' W 118°11'0 0.0
2017-Oct-18 22:27N 33°44' W 118°11'0 0.6
2017-Oct-18 21:59N 33°44' W 118°10'0 0.7
2017-Oct-18 21:30N 33°44' W 118°10'0 0.1
2017-Oct-18 21:00N 33°44' W 118°10'0 0.4
2017-Oct-18 20:30N 33°44' W 118°10'5 7.4
2017-Oct-18 19:53N 33°43' W 118°15'1 2.6
2017-Oct-18 19:30N 33°44' W 118°16'0 0.0
2017-Oct-18 19:00N 33°44' W 118°16'0 0.0
2017-Oct-18 18:30N 33°44' W 118°16'0 0.0
2017-Oct-18 18:00N 33°44' W 118°16'2 4.3
2017-Oct-18 17:30N 33°43' W 118°13'1 1.5
2017-Oct-18 16:58N 33°44' W 118°12'0 0.0
2017-Oct-18 16:25N 33°44' W 118°12'1 2.7
2017-Oct-18 15:56N 33°45' W 118°13'1 2.8
2017-Oct-18 15:29N 33°46' W 118°13'1 0.9
2017-Oct-18 14:43N 33°45' W 118°13'3 2.8
2017-Oct-18 13:43N 33°44' W 118°16'0 0.9
2017-Oct-18 13:23N 33°44' W 118°16'1 3.4
2017-Oct-18 12:59N 33°45' W 118°16'1 2.1
2017-Oct-18 12:23N 33°46' W 118°16'1 2.5
2017-Oct-18 12:00N 33°45' W 118°16'1 1.4
2017-Oct-18 11:30N 33°44' W 118°17'2 4.2
2017-Oct-18 11:00N 33°43' W 118°15'1 1.8
2017-Oct-18 10:19N 33°44' W 118°16'0 0.0
2017-Oct-18 10:00N 33°44' W 118°16'0 0.0
2017-Oct-18 09:30N 33°44' W 118°16'0 0.0
2017-Oct-18 08:58N 33°44' W 118°16'0 0.0
2017-Oct-18 08:30N 33°44' W 118°16'0 0.0
2017-Oct-18 08:00N 33°44' W 118°16'0 0.0
2017-Oct-18 07:30N 33°44' W 118°16'0 0.0
2017-Oct-18 07:00N 33°44' W 118°16'0 0.0
2017-Oct-18 06:30N 33°44' W 118°16'0 0.0
2017-Oct-18 06:00N 33°44' W 118°16'0 0.0
2017-Oct-18 05:30N 33°44' W 118°16'0 0.0
2017-Oct-18 05:00N 33°44' W 118°16'0 0.0
2017-Oct-18 04:30N 33°44' W 118°16'0 0.0
2017-Oct-18 04:00N 33°44' W 118°16'0 0.0
2017-Oct-18 03:30N 33°44' W 118°16'0 0.0
2017-Oct-18 02:56N 33°44' W 118°16'0 0.0
2017-Oct-18 02:12N 33°44' W 118°16'0 0.0
2017-Oct-18 01:45N 33°44' W 118°16'0 0.0
2017-Oct-18 01:27N 33°44' W 118°16'4 3.1
2017-Oct-18 00:11N 33°44' W 118°11'3 6.6
2017-Oct-17 23:46N 33°41' W 118°11'3 2.3
2017-Oct-17 22:22N 33°43' W 118°15'1 0.8
2017-Oct-17 21:44N 33°43' W 118°14'2 5.7
2017-Oct-17 21:27N 33°43' W 118°16'3 4.1
2017-Oct-17 20:48N 33°46' W 118°16'0 0.1
2017-Oct-17 20:22N 33°46' W 118°16'3 5.2
2017-Oct-17 19:52N 33°43' W 118°16'1 1.8
2017-Oct-17 19:30N 33°44' W 118°16'0 0.0
2017-Oct-17 18:56N 33°44' W 118°16'0 0.0
2017-Oct-17 18:30N 33°44' W 118°16'0 0.0
2017-Oct-17 17:56N 33°44' W 118°16'0 0.0
2017-Oct-17 17:30N 33°44' W 118°16'0 0.0
2017-Oct-17 16:51N 33°44' W 118°16'1 2.1
2017-Oct-17 16:30N 33°43' W 118°16'3 3.0
2017-Oct-17 15:37N 33°46' W 118°16'2 3.0
2017-Oct-17 14:47N 33°45' W 118°13'1 2.1
2017-Oct-17 14:20N 33°45' W 118°14'0 0.8
2017-Oct-17 13:57N 33°45' W 118°14'3 5.8
2017-Oct-17 13:30N 33°43' W 118°11'1 1.2
2017-Oct-17 12:46N 33°44' W 118°12'2 7.5
2017-Oct-17 12:30N 33°45' W 118°14'0 0.1
2017-Oct-17 12:00N 33°45' W 118°14'0 0.0
2017-Oct-17 11:29N 33°45' W 118°14'0 0.0
2017-Oct-17 10:59N 33°45' W 118°14'2 1.6
2017-Oct-17 09:47N 33°45' W 118°16'2 4.0
2017-Oct-17 09:22N 33°43' W 118°16'1 0.5
2017-Oct-17 08:03N 33°44' W 118°16'0 0.0
2017-Oct-17 07:59N 33°44' W 118°16'0 0.0
2017-Oct-17 07:03N 33°44' W 118°16'0 0.0
2017-Oct-17 06:54N 33°44' W 118°16'0 0.0
2017-Oct-17 06:07N 33°44' W 118°16'0 0.1
2017-Oct-17 06:00N 33°44' W 118°16'0 0.0
2017-Oct-17 05:27N 33°44' W 118°16'0 0.0
2017-Oct-17 05:00N 33°44' W 118°16'0 0.4
2017-Oct-17 04:30N 33°44' W 118°16'1 2.3
2017-Oct-17 03:56N 33°45' W 118°16'1 1.9
2017-Oct-17 03:30N 33°46' W 118°16'0 0.2
2017-Oct-17 02:29N 33°46' W 118°16'2 2.9
2017-Oct-17 01:47N 33°44' W 118°16'2 5.6
2017-Oct-17 01:20N 33°42' W 118°14'1 4.3
2017-Oct-17 01:00N 33°41' W 118°13'4 6.8
2017-Oct-17 00:28N 33°44' W 118°16'0 0.4
2017-Oct-16 23:55N 33°44' W 118°16'0 0.0
2017-Oct-16 23:22N 33°44' W 118°16'0 0.0
2017-Oct-16 22:57N 33°44' W 118°16'0 0.7
2017-Oct-16 22:29N 33°44' W 118°15'0 0.6
2017-Oct-16 21:57N 33°44' W 118°16'2 4.8
2017-Oct-16 21:30N 33°42' W 118°14'2 4.4
2017-Oct-16 21:00N 33°44' W 118°16'0 0.0
2017-Oct-16 20:30N 33°44' W 118°16'0 0.0
2017-Oct-16 20:00N 33°44' W 118°16'0 0.0
2017-Oct-16 19:30N 33°44' W 118°16'0 0.0
2017-Oct-16 19:00N 33°44' W 118°16'0 0.0
2017-Oct-16 18:30N 33°44' W 118°16'1 3.0
2017-Oct-16 18:00N 33°43' W 118°14'2 4.8
2017-Oct-16 17:30N 33°45' W 118°12'1 1.5
2017-Oct-16 17:00N 33°44' W 118°12'1 2.4
2017-Oct-16 16:26N 33°45' W 118°13'1 1.8
2017-Oct-16 16:00N 33°46' W 118°13'2 2.9
2017-Oct-16 15:27N 33°45' W 118°13'2 0.6
2017-Oct-16 11:08N 33°44' W 118°16'0 0.0
2017-Oct-16 10:46N 33°44' W 118°16'0 0.0
2017-Oct-16 10:20N 33°44' W 118°16'0 0.0
2017-Oct-16 08:35N 33°44' W 118°16'0 0.1
2017-Oct-16 08:29N 33°44' W 118°16'0 0.0
2017-Oct-16 07:30N 33°44' W 118°16'1 1.5
2017-Oct-16 06:54N 33°43' W 118°15'4 1.7
2017-Oct-16 04:47N 33°43' W 118°11'2 2.2
2017-Oct-16 03:52N 33°45' W 118°12'3 6.3
2017-Oct-16 03:27N 33°43' W 118°14'1 2.8
2017-Oct-16 02:57N 33°44' W 118°16'0 0.1
2017-Oct-16 02:27N 33°44' W 118°16'0 0.0
2017-Oct-16 01:59N 33°44' W 118°16'0 0.0
2017-Oct-16 01:26N 33°44' W 118°16'0 0.0
2017-Oct-16 00:59N 33°44' W 118°16'0 0.0
2017-Oct-16 00:30N 33°44' W 118°16'0 0.0
2017-Oct-16 00:00N 33°44' W 118°16'0 0.0
2017-Oct-15 23:29N 33°44' W 118°16'0 0.0
2017-Oct-15 22:59N 33°44' W 118°16'1 1.9
2017-Oct-15 22:30N 33°43' W 118°15'3 6.9
2017-Oct-15 22:00N 33°45' W 118°12'0 0.7
2017-Oct-15 21:30N 33°45' W 118°12'1 2.3
2017-Oct-15 20:59N 33°43' W 118°11'3 6.2
2017-Oct-15 20:26N 33°43' W 118°15'1 2.2
2017-Oct-15 19:59N 33°44' W 118°16'0 0.0
2017-Oct-15 19:30N 33°44' W 118°16'0 0.0
2017-Oct-15 19:00N 33°44' W 118°16'0 0.1
2017-Oct-15 18:30N 33°44' W 118°16'2 4.0
2017-Oct-15 18:00N 33°43' W 118°13'3 5.4
2017-Oct-15 17:30N 33°45' W 118°11'0 0.1
2017-Oct-15 16:54N 33°45' W 118°11'0 0.1
2017-Oct-15 16:30N 33°45' W 118°11'0 0.0
2017-Oct-15 16:00N 33°45' W 118°11'1 2.0
2017-Oct-15 15:30N 33°44' W 118°11'2 2.7
2017-Oct-15 14:56N 33°45' W 118°13'1 1.1
2017-Oct-15 14:00N 33°44' W 118°13'3 4.9
2017-Oct-15 13:30N 33°44' W 118°16'0 0.2
2017-Oct-15 13:00N 33°44' W 118°16'3 6.0
2017-Oct-15 12:30N 33°41' W 118°14'1 1.6
2017-Oct-15 12:00N 33°42' W 118°14'2 4.7
2017-Oct-15 11:30N 33°44' W 118°16'0 0.0
2017-Oct-15 11:00N 33°44' W 118°16'0 0.0
2017-Oct-15 10:30N 33°44' W 118°16'0 0.0
2017-Oct-15 10:00N 33°44' W 118°16'0 0.0
2017-Oct-15 09:30N 33°44' W 118°16'0 0.0
2017-Oct-15 09:00N 33°44' W 118°16'0 0.0
2017-Oct-15 08:30N 33°44' W 118°16'0 0.0
2017-Oct-15 08:00N 33°44' W 118°16'0 0.0
2017-Oct-15 07:30N 33°44' W 118°16'0 0.0
2017-Oct-15 07:00N 33°44' W 118°16'0 0.0
2017-Oct-15 06:30N 33°44' W 118°16'1 2.5
2017-Oct-15 06:00N 33°43' W 118°15'2 3.2
2017-Oct-15 05:30N 33°44' W 118°13'0 0.0
2017-Oct-15 04:58N 33°44' W 118°13'1 2.9
2017-Oct-15 04:28N 33°45' W 118°13'0 0.0
2017-Oct-15 04:00N 33°45' W 118°13'0 0.0
2017-Oct-15 03:29N 33°45' W 118°13'0 0.0
2017-Oct-15 03:00N 33°45' W 118°13'0 0.0
2017-Oct-15 02:30N 33°45' W 118°13'0 0.0
2017-Oct-15 02:00N 33°45' W 118°13'0 0.5
2017-Oct-15 01:30N 33°45' W 118°13'0 0.2
2017-Oct-15 01:00N 33°45' W 118°13'0 0.4
2017-Oct-15 00:30N 33°45' W 118°13'2 3.0
2017-Oct-15 00:00N 33°44' W 118°13'0 0.3
2017-Oct-14 23:30N 33°44' W 118°13'2 4.2
2017-Oct-14 23:00N 33°43' W 118°16'1 1.7
2017-Oct-14 22:30N 33°44' W 118°16'0 0.2
2017-Oct-14 22:00N 33°44' W 118°16'0 0.0
2017-Oct-14 21:13N 33°44' W 118°16'0 0.0
2017-Oct-14 21:00N 33°44' W 118°16'0 0.0
2017-Oct-14 20:30N 33°44' W 118°16'0 0.0
2017-Oct-14 20:00N 33°44' W 118°16'0 0.0
2017-Oct-14 19:30N 33°44' W 118°16'0 0.0
2017-Oct-14 19:00N 33°44' W 118°16'0 0.0
2017-Oct-14 18:30N 33°44' W 118°16'1 1.2
2017-Oct-14 17:59N 33°44' W 118°16'1 2.4
2017-Oct-14 17:30N 33°45' W 118°17'1 1.1
2017-Oct-14 17:00N 33°44' W 118°17'3 5.6
2017-Oct-14 16:27N 33°44' W 118°13'0 0.4
2017-Oct-14 16:00N 33°44' W 118°13'1 0.9
2017-Oct-14 14:51N 33°45' W 118°12'0 0.0
2017-Oct-14 14:22N 33°45' W 118°12'0 1.3
2017-Oct-14 14:00N 33°45' W 118°12'0 0.7
2017-Oct-14 13:30N 33°45' W 118°12'1 2.3
2017-Oct-14 13:00N 33°44' W 118°11'3 5.9
2017-Oct-14 12:30N 33°43' W 118°15'1 2.4
2017-Oct-14 12:00N 33°44' W 118°16'0 0.0
2017-Oct-14 11:29N 33°44' W 118°16'1 1.3
2017-Oct-14 11:00N 33°43' W 118°16'2 3.7
2017-Oct-14 10:28N 33°45' W 118°16'1 1.4
2017-Oct-14 09:59N 33°45' W 118°16'1 2.6
2017-Oct-14 09:30N 33°44' W 118°17'1 1.4
2017-Oct-14 08:51N 33°44' W 118°16'0 0.0
2017-Oct-14 08:30N 33°44' W 118°16'0 0.0
2017-Oct-14 07:50N 33°44' W 118°16'0 0.0
2017-Oct-14 07:26N 33°44' W 118°16'0 0.5
2017-Oct-14 07:00N 33°44' W 118°16'2 3.3
2017-Oct-14 06:30N 33°45' W 118°16'1 1.7
2017-Oct-14 06:00N 33°46' W 118°15'2 4.7
2017-Oct-14 05:30N 33°44' W 118°16'1 1.2
2017-Oct-14 05:00N 33°44' W 118°16'0 0.0
2017-Oct-14 04:30N 33°44' W 118°16'0 0.0
2017-Oct-14 04:00N 33°44' W 118°16'0 0.1
2017-Oct-14 03:30N 33°44' W 118°16'1 2.9
2017-Oct-14 03:00N 33°43' W 118°14'2 4.7
2017-Oct-14 02:30N 33°45' W 118°12'0 0.1
2017-Oct-14 02:00N 33°45' W 118°12'2 4.6
2017-Oct-14 01:29N 33°44' W 118°10'0 0.1
2017-Oct-14 01:00N 33°44' W 118°10'2 3.3
2017-Oct-14 00:30N 33°44' W 118°12'3 6.4
2017-Oct-14 00:00N 33°44' W 118°16'0 0.0
2017-Oct-13 23:30N 33°44' W 118°16'0 0.0
2017-Oct-13 23:00N 33°44' W 118°16'0 0.0
2017-Oct-13 21:27N 33°44' W 118°16'0 0.0
2017-Oct-13 20:13N 33°44' W 118°16'0 0.0
2017-Oct-13 19:56N 33°44' W 118°16'0 0.0
2017-Oct-13 19:11N 33°44' W 118°16'0 0.0
2017-Oct-13 18:41N 33°44' W 118°16'0 0.0
2017-Oct-13 18:27N 33°44' W 118°16'0 0.0
2017-Oct-13 17:58N 33°44' W 118°16'0 0.0
2017-Oct-13 17:29N 33°44' W 118°16'0 0.0
2017-Oct-13 16:59N 33°44' W 118°16'0 0.2
2017-Oct-13 16:28N 33°44' W 118°16'4 5.7
2017-Oct-13 15:50N 33°44' W 118°11'1 1.6
2017-Oct-13 14:55N 33°44' W 118°10'3 6.5
2017-Oct-13 14:30N 33°45' W 118°13'2 2.6
2017-Oct-13 13:51N 33°46' W 118°13'0 0.4
2017-Oct-13 13:30N 33°46' W 118°13'1 2.7
2017-Oct-13 13:01N 33°45' W 118°13'2 3.3
2017-Oct-13 12:30N 33°44' W 118°12'0 0.0
2017-Oct-13 12:00N 33°44' W 118°12'1 1.3
2017-Oct-13 11:24N 33°44' W 118°13'2 4.9
2017-Oct-13 11:00N 33°46' W 118°13'0 0.9
2017-Oct-13 10:30N 33°46' W 118°13'0 0.7
2017-Oct-13 09:59N 33°46' W 118°14'0 0.6
2017-Oct-13 09:30N 33°46' W 118°13'3 7.0
2017-Oct-13 09:00N 33°43' W 118°16'1 1.7
2017-Oct-13 08:30N 33°44' W 118°16'0 0.0
2017-Oct-13 08:00N 33°44' W 118°16'0 0.0
2017-Oct-13 07:30N 33°44' W 118°16'0 0.0
2017-Oct-13 06:56N 33°44' W 118°16'0 0.0
2017-Oct-13 06:30N 33°44' W 118°16'0 0.0
2017-Oct-13 06:00N 33°44' W 118°16'0 0.0
2017-Oct-13 05:30N 33°44' W 118°16'0 0.2
2017-Oct-13 05:00N 33°44' W 118°16'0 0.1
2017-Oct-13 04:30N 33°44' W 118°16'0 0.1
2017-Oct-13 04:00N 33°44' W 118°16'0 0.0
2017-Oct-13 03:14N 33°44' W 118°16'0 0.0
2017-Oct-13 03:00N 33°44' W 118°16'0 0.0
2017-Oct-13 02:30N 33°44' W 118°16'0 0.0
2017-Oct-13 02:00N 33°44' W 118°16'0 0.0
2017-Oct-13 01:30N 33°44' W 118°16'0 0.3
2017-Oct-13 00:54N 33°44' W 118°16'0 1.1
2017-Oct-13 00:30N 33°44' W 118°15'0 0.6
2017-Oct-13 00:00N 33°44' W 118°16'1 1.4
2017-Oct-12 23:30N 33°43' W 118°16'2 3.2
2017-Oct-12 23:00N 33°45' W 118°16'1 1.9
2017-Oct-12 22:25N 33°44' W 118°16'2 4.6
2017-Oct-12 21:54N 33°43' W 118°13'2 4.7
2017-Oct-12 21:30N 33°44' W 118°11'1 1.4
2017-Oct-12 20:55N 33°44' W 118°10'4 8.8
2017-Oct-12 20:25N 33°43' W 118°15'1 2.8
2017-Oct-12 19:59N 33°44' W 118°16'0 0.0
2017-Oct-12 19:28N 33°44' W 118°16'1 1.4
2017-Oct-12 19:00N 33°44' W 118°16'2 3.6
2017-Oct-12 18:26N 33°46' W 118°16'1 1.8
2017-Oct-12 18:00N 33°45' W 118°16'2 4.6
2017-Oct-12 17:30N 33°43' W 118°16'1 2.4
2017-Oct-12 17:00N 33°42' W 118°15'2 4.5
2017-Oct-12 16:30N 33°40' W 118°13'3 5.0
2017-Oct-12 15:58N 33°43' W 118°15'2 5.1
2017-Oct-12 15:30N 33°45' W 118°17'0 0.2
2017-Oct-12 14:28N 33°45' W 118°16'3 1.2
2017-Oct-12 12:05N 33°45' W 118°13'2 9.7
2017-Oct-12 11:53N 33°43' W 118°14'1 3.0
2017-Oct-12 11:29N 33°44' W 118°15'0 0.2
2017-Oct-12 11:00N 33°44' W 118°15'0 0.5
2017-Oct-12 10:16N 33°44' W 118°16'0 0.0
2017-Oct-12 09:58N 33°44' W 118°16'0 0.0
2017-Oct-12 09:27N 33°44' W 118°16'0 0.0
2017-Oct-12 08:55N 33°44' W 118°16'0 0.0
2017-Oct-12 08:30N 33°44' W 118°16'0 0.0
2017-Oct-12 08:00N 33°44' W 118°16'0 0.0
2017-Oct-12 07:30N 33°44' W 118°16'0 0.0
2017-Oct-12 07:00N 33°44' W 118°16'0 0.0
2017-Oct-12 06:30N 33°44' W 118°16'0 0.0
2017-Oct-12 06:00N 33°44' W 118°16'0 0.2
2017-Oct-12 05:19N 33°44' W 118°16'5 5.8
2017-Oct-12 04:26N 33°44' W 118°10'0 0.8
2017-Oct-12 03:55N 33°44' W 118°10'2 4.8
2017-Oct-12 03:28N 33°44' W 118°13'0 0.1
2017-Oct-12 02:54N 33°44' W 118°13'0 0.6
2017-Oct-12 02:31N 33°44' W 118°12'1 1.5
2017-Oct-12 01:54N 33°45' W 118°13'1 1.7
2017-Oct-12 01:27N 33°46' W 118°13'0 0.0
2017-Oct-12 01:00N 33°46' W 118°13'0 0.0
2017-Oct-12 00:30N 33°46' W 118°13'0 0.0
2017-Oct-12 00:00N 33°46' W 118°13'0 0.1
2017-Oct-11 23:30N 33°46' W 118°13'1 1.9
2017-Oct-11 23:00N 33°45' W 118°14'1 2.4
2017-Oct-11 22:30N 33°45' W 118°13'1 2.8
2017-Oct-11 22:00N 33°44' W 118°12'1 1.7
2017-Oct-11 21:30N 33°44' W 118°13'3 5.1
2017-Oct-11 21:00N 33°44' W 118°16'0 0.1
2017-Oct-11 20:30N 33°44' W 118°16'0 0.0
2017-Oct-11 19:59N 33°44' W 118°16'0 0.0
2017-Oct-11 19:30N 33°44' W 118°16'0 0.0
2017-Oct-11 18:57N 33°44' W 118°16'0 0.0
2017-Oct-11 18:29N 33°44' W 118°16'2 3.1
2017-Oct-11 18:00N 33°43' W 118°14'2 4.2
2017-Oct-11 17:30N 33°45' W 118°13'0 0.0
2017-Oct-11 17:00N 33°45' W 118°13'1 0.1
2017-Oct-11 00:00N 33°44' W 118°13'1 2.5
2017-Oct-10 23:30N 33°45' W 118°13'0 0.4
2017-Oct-10 22:57N 33°45' W 118°13'0 0.0
2017-Oct-10 22:27N 33°45' W 118°13'0 0.4
2017-Oct-10 22:00N 33°45' W 118°13'2 4.7
2017-Oct-10 21:30N 33°43' W 118°11'0 0.8
2017-Oct-10 21:00N 33°44' W 118°12'3 6.1
2017-Oct-10 20:30N 33°43' W 118°15'1 1.8
2017-Oct-10 20:00N 33°43' W 118°16'1 2.7
2017-Oct-10 19:30N 33°45' W 118°16'1 2.0
2017-Oct-10 19:00N 33°44' W 118°16'0 0.0
2017-Oct-10 18:30N 33°44' W 118°16'0 0.8
2017-Oct-10 18:00N 33°44' W 118°15'1 1.1
2017-Oct-10 17:30N 33°44' W 118°16'3 6.9
2017-Oct-10 17:00N 33°44' W 118°12'2 4.0
2017-Oct-10 16:31N 33°45' W 118°13'0 0.9
2017-Oct-10 16:00N 33°45' W 118°13'0 0.2
2017-Oct-10 15:30N 33°45' W 118°13'1 1.3
2017-Oct-10 15:00N 33°45' W 118°13'2 2.2
2017-Oct-10 14:00N 33°46' W 118°15'0 0.2
2017-Oct-10 13:30N 33°46' W 118°15'1 1.9
2017-Oct-10 13:00N 33°45' W 118°16'1 2.3
2017-Oct-10 12:30N 33°44' W 118°17'2 4.9
2017-Oct-10 12:00N 33°44' W 118°14'2 3.4
2017-Oct-10 11:30N 33°45' W 118°13'0 0.0
2017-Oct-10 11:00N 33°45' W 118°13'0 0.0
2017-Oct-10 10:30N 33°46' W 118°13'0 0.0
2017-Oct-10 10:00N 33°46' W 118°13'3 5.8
2017-Oct-10 09:30N 33°43' W 118°15'1 2.5
2017-Oct-10 09:00N 33°44' W 118°16'0 0.0
2017-Oct-10 08:30N 33°44' W 118°16'0 0.0
2017-Oct-10 08:00N 33°44' W 118°16'0 0.0
2017-Oct-10 07:30N 33°44' W 118°16'0 0.0
2017-Oct-10 07:00N 33°44' W 118°16'0 0.0
2017-Oct-10 06:30N 33°44' W 118°16'0 0.0
2017-Oct-10 06:00N 33°44' W 118°16'0 0.0
2017-Oct-10 05:30N 33°44' W 118°16'0 0.0
2017-Oct-10 05:00N 33°44' W 118°16'0 0.0
2017-Oct-10 04:30N 33°44' W 118°16'0 0.0
2017-Oct-10 04:00N 33°44' W 118°16'0 0.0
2017-Oct-10 03:30N 33°44' W 118°16'0 0.0
2017-Oct-10 03:00N 33°44' W 118°16'0 0.0
2017-Oct-10 02:30N 33°44' W 118°16'0 0.0
2017-Oct-10 02:00N 33°44' W 118°16'0 0.0
2017-Oct-10 01:30N 33°44' W 118°16'0 0.0
2017-Oct-10 01:00N 33°44' W 118°16'1 1.0
2017-Oct-10 00:30N 33°44' W 118°15'0 0.7
2017-Oct-10 00:01N 33°44' W 118°15'2 3.7
2017-Oct-09 23:31N 33°42' W 118°15'1 1.3
2017-Oct-09 23:00N 33°43' W 118°15'0 0.1
2017-Oct-09 22:30N 33°43' W 118°15'1 1.4
2017-Oct-09 22:01N 33°43' W 118°16'1 1.7
2017-Oct-09 21:31N 33°44' W 118°15'1 2.9
2017-Oct-09 21:00N 33°42' W 118°15'2 3.1
2017-Oct-09 20:30N 33°44' W 118°16'0 0.0
2017-Oct-09 20:00N 33°44' W 118°16'0 0.0
2017-Oct-09 19:29N 33°44' W 118°16'0 0.0
2017-Oct-09 19:00N 33°44' W 118°16'0 0.0
2017-Oct-09 18:30N 33°44' W 118°16'0 0.0
2017-Oct-09 18:00N 33°44' W 118°16'0 0.0
2017-Oct-09 17:30N 33°44' W 118°16'0 0.0
2017-Oct-09 17:00N 33°44' W 118°16'0 0.0
2017-Oct-09 16:30N 33°44' W 118°16'0 0.0
2017-Oct-09 15:59N 33°44' W 118°16'0 0.0
2017-Oct-09 15:22N 33°44' W 118°16'3 0.4
2017-Oct-09 08:50N 33°45' W 118°13'  
Track history (hours):
 
Tides and Currents Weather Stations Pressure Air Temp Water Temp Dewpoint Dewpoint Depression Visibility Wind Speed Wind Dir Waves Ship Positions

Robert Franco

Owner: Harley Marine Services, Inc, Seattle, WA. More information available from US FCC via Universal Licensing System and Coast Guard Vessel Documentation Center.

Last reported at 2017-Oct-19 07:39 UTC. Time now 2017-Oct-19 09:12 UTC.
Position N 33°44' W 118°13'.

Length 30 m; draft 5.7 m.

Type: Towing. MMSI: 367569830.

Date/timePositionNaut miles runAvg speedWind from/ knotsBaromVisibWave heightAir tempDewpointWater temp
2017-Oct-19 07:39N 33°44' W 118°13'2 6.9
2017-Oct-19 07:20N 33°44' W 118°16'0 0.2
2017-Oct-19 04:59N 33°43' W 118°16'2 5.2
2017-Oct-19 04:30N 33°46' W 118°16'3 3.7
2017-Oct-19 03:49N 33°43' W 118°16'1 1.8
2017-Oct-19 03:28N 33°44' W 118°16'1 3.0
2017-Oct-19 03:00N 33°45' W 118°16'0 0.3
2017-Oct-19 02:30N 33°45' W 118°16'0 0.7
2017-Oct-19 02:00N 33°45' W 118°16'2 4.5
2017-Oct-19 01:30N 33°43' W 118°16'2 3.4
2017-Oct-19 01:00N 33°43' W 118°14'2 4.3
2017-Oct-19 00:30N 33°45' W 118°13'1 1.5
2017-Oct-19 00:00N 33°46' W 118°13'1 1.8
2017-Oct-18 23:30N 33°45' W 118°13'2 4.9
2017-Oct-18 22:59N 33°44' W 118°11'0 0.0
2017-Oct-18 22:27N 33°44' W 118°11'0 0.6
2017-Oct-18 21:59N 33°44' W 118°10'0 0.7
2017-Oct-18 21:30N 33°44' W 118°10'0 0.1
2017-Oct-18 21:00N 33°44' W 118°10'0 0.4
2017-Oct-18 20:30N 33°44' W 118°10'5 7.4
2017-Oct-18 19:53N 33°43' W 118°15'1 2.6
2017-Oct-18 19:30N 33°44' W 118°16'0 0.0
2017-Oct-18 19:00N 33°44' W 118°16'0 0.0
2017-Oct-18 18:30N 33°44' W 118°16'0 0.0
2017-Oct-18 18:00N 33°44' W 118°16'2 4.3
2017-Oct-18 17:30N 33°43' W 118°13'1 1.5
2017-Oct-18 16:58N 33°44' W 118°12'0 0.0
2017-Oct-18 16:25N 33°44' W 118°12'1 2.7
2017-Oct-18 15:56N 33°45' W 118°13'1 2.8
2017-Oct-18 15:29N 33°46' W 118°13'1 0.9
2017-Oct-18 14:43N 33°45' W 118°13'3 2.8
2017-Oct-18 13:43N 33°44' W 118°16'0 0.9
2017-Oct-18 13:23N 33°44' W 118°16'1 3.4
2017-Oct-18 12:59N 33°45' W 118°16'1 2.1
2017-Oct-18 12:23N 33°46' W 118°16'1 2.5
2017-Oct-18 12:00N 33°45' W 118°16'1 1.4
2017-Oct-18 11:30N 33°44' W 118°17'2 4.2
2017-Oct-18 11:00N 33°43' W 118°15'1 1.8
2017-Oct-18 10:19N 33°44' W 118°16'0 0.0
2017-Oct-18 10:00N 33°44' W 118°16'0 0.0
2017-Oct-18 09:30N 33°44' W 118°16'0 0.0
2017-Oct-18 08:58N 33°44' W 118°16'0 0.0
2017-Oct-18 08:30N 33°44' W 118°16'0 0.0
2017-Oct-18 08:00N 33°44' W 118°16'0 0.0
2017-Oct-18 07:30N 33°44' W 118°16'0 0.0
2017-Oct-18 07:00N 33°44' W 118°16'0 0.0
2017-Oct-18 06:30N 33°44' W 118°16'0 0.0
2017-Oct-18 06:00N 33°44' W 118°16'0 0.0
2017-Oct-18 05:30N 33°44' W 118°16'0 0.0
2017-Oct-18 05:00N 33°44' W 118°16'0 0.0
2017-Oct-18 04:30N 33°44' W 118°16'0 0.0
2017-Oct-18 04:00N 33°44' W 118°16'0 0.0
2017-Oct-18 03:30N 33°44' W 118°16'0 0.0
2017-Oct-18 02:56N 33°44' W 118°16'0 0.0
2017-Oct-18 02:12N 33°44' W 118°16'0 0.0
2017-Oct-18 01:45N 33°44' W 118°16'0 0.0
2017-Oct-18 01:27N 33°44' W 118°16'4 3.1
2017-Oct-18 00:11N 33°44' W 118°11'3 6.6
2017-Oct-17 23:46N 33°41' W 118°11'3 2.3
2017-Oct-17 22:22N 33°43' W 118°15'1 0.8
2017-Oct-17 21:44N 33°43' W 118°14'2 5.7
2017-Oct-17 21:27N 33°43' W 118°16'3 4.1
2017-Oct-17 20:48N 33°46' W 118°16'0 0.1
2017-Oct-17 20:22N 33°46' W 118°16'3 5.2
2017-Oct-17 19:52N 33°43' W 118°16'1 1.8
2017-Oct-17 19:30N 33°44' W 118°16'0 0.0
2017-Oct-17 18:56N 33°44' W 118°16'0 0.0
2017-Oct-17 18:30N 33°44' W 118°16'0 0.0
2017-Oct-17 17:56N 33°44' W 118°16'0 0.0
2017-Oct-17 17:30N 33°44' W 118°16'0 0.0
2017-Oct-17 16:51N 33°44' W 118°16'1 2.1
2017-Oct-17 16:30N 33°43' W 118°16'3 3.0
2017-Oct-17 15:37N 33°46' W 118°16'2 3.0
2017-Oct-17 14:47N 33°45' W 118°13'1 2.1
2017-Oct-17 14:20N 33°45' W 118°14'0 0.8
2017-Oct-17 13:57N 33°45' W 118°14'3 5.8
2017-Oct-17 13:30N 33°43' W 118°11'1 1.2
2017-Oct-17 12:46N 33°44' W 118°12'2 7.5
2017-Oct-17 12:30N 33°45' W 118°14'0 0.1
2017-Oct-17 12:00N 33°45' W 118°14'0 0.0
2017-Oct-17 11:29N 33°45' W 118°14'0 0.0
2017-Oct-17 10:59N 33°45' W 118°14'2 1.6
2017-Oct-17 09:47N 33°45' W 118°16'2 4.0
2017-Oct-17 09:22N 33°43' W 118°16'1 0.5
2017-Oct-17 08:03N 33°44' W 118°16'0 0.0
2017-Oct-17 07:59N 33°44' W 118°16'0 0.0
2017-Oct-17 07:03N 33°44' W 118°16'0 0.0
2017-Oct-17 06:54N 33°44' W 118°16'0 0.0
2017-Oct-17 06:07N 33°44' W 118°16'0 0.1
2017-Oct-17 06:00N 33°44' W 118°16'0 0.0
2017-Oct-17 05:27N 33°44' W 118°16'0 0.0
2017-Oct-17 05:00N 33°44' W 118°16'0 0.4
2017-Oct-17 04:30N 33°44' W 118°16'1 2.3
2017-Oct-17 03:56N 33°45' W 118°16'1 1.9
2017-Oct-17 03:30N 33°46' W 118°16'0 0.2
2017-Oct-17 02:29N 33°46' W 118°16'2 2.9
2017-Oct-17 01:47N 33°44' W 118°16'2 5.6
2017-Oct-17 01:20N 33°42' W 118°14'1 4.3
2017-Oct-17 01:00N 33°41' W 118°13'4 6.8
2017-Oct-17 00:28N 33°44' W 118°16'0 0.4
2017-Oct-16 23:55N 33°44' W 118°16'0 0.0
2017-Oct-16 23:22N 33°44' W 118°16'0 0.0
2017-Oct-16 22:57N 33°44' W 118°16'0 0.7
2017-Oct-16 22:29N 33°44' W 118°15'0 0.6
2017-Oct-16 21:57N 33°44' W 118°16'2 4.8
2017-Oct-16 21:30N 33°42' W 118°14'2 4.4
2017-Oct-16 21:00N 33°44' W 118°16'0 0.0
2017-Oct-16 20:30N 33°44' W 118°16'0 0.0
2017-Oct-16 20:00N 33°44' W 118°16'0 0.0
2017-Oct-16 19:30N 33°44' W 118°16'0 0.0
2017-Oct-16 19:00N 33°44' W 118°16'0 0.0
2017-Oct-16 18:30N 33°44' W 118°16'1 3.0
2017-Oct-16 18:00N 33°43' W 118°14'2 4.8
2017-Oct-16 17:30N 33°45' W 118°12'1 1.5
2017-Oct-16 17:00N 33°44' W 118°12'1 2.4
2017-Oct-16 16:26N 33°45' W 118°13'1 1.8
2017-Oct-16 16:00N 33°46' W 118°13'2 2.9
2017-Oct-16 15:27N 33°45' W 118°13'2 0.6
2017-Oct-16 11:08N 33°44' W 118°16'0 0.0
2017-Oct-16 10:46N 33°44' W 118°16'0 0.0
2017-Oct-16 10:20N 33°44' W 118°16'0 0.0
2017-Oct-16 08:35N 33°44' W 118°16'0 0.1
2017-Oct-16 08:29N 33°44' W 118°16'0 0.0
2017-Oct-16 07:30N 33°44' W 118°16'1 1.5
2017-Oct-16 06:54N 33°43' W 118°15'4 1.7
2017-Oct-16 04:47N 33°43' W 118°11'2 2.2
2017-Oct-16 03:52N 33°45' W 118°12'3 6.3
2017-Oct-16 03:27N 33°43' W 118°14'1 2.8
2017-Oct-16 02:57N 33°44' W 118°16'0 0.1
2017-Oct-16 02:27N 33°44' W 118°16'0 0.0
2017-Oct-16 01:59N 33°44' W 118°16'0 0.0
2017-Oct-16 01:26N 33°44' W 118°16'0 0.0
2017-Oct-16 00:59N 33°44' W 118°16'0 0.0
2017-Oct-16 00:30N 33°44' W 118°16'0 0.0
2017-Oct-16 00:00N 33°44' W 118°16'0 0.0
2017-Oct-15 23:29N 33°44' W 118°16'0 0.0
2017-Oct-15 22:59N 33°44' W 118°16'1 1.9
2017-Oct-15 22:30N 33°43' W 118°15'3 6.9
2017-Oct-15 22:00N 33°45' W 118°12'0 0.7
2017-Oct-15 21:30N 33°45' W 118°12'1 2.3
2017-Oct-15 20:59N 33°43' W 118°11'3 6.2
2017-Oct-15 20:26N 33°43' W 118°15'1 2.2
2017-Oct-15 19:59N 33°44' W 118°16'0 0.0
2017-Oct-15 19:30N 33°44' W 118°16'0 0.0
2017-Oct-15 19:00N 33°44' W 118°16'0 0.1
2017-Oct-15 18:30N 33°44' W 118°16'2 4.0
2017-Oct-15 18:00N 33°43' W 118°13'3 5.4
2017-Oct-15 17:30N 33°45' W 118°11'0 0.1
2017-Oct-15 16:54N 33°45' W 118°11'0 0.1
2017-Oct-15 16:30N 33°45' W 118°11'0 0.0
2017-Oct-15 16:00N 33°45' W 118°11'1 2.0
2017-Oct-15 15:30N 33°44' W 118°11'2 2.7
2017-Oct-15 14:56N 33°45' W 118°13'1 1.1
2017-Oct-15 14:00N 33°44' W 118°13'3 4.9
2017-Oct-15 13:30N 33°44' W 118°16'0 0.2
2017-Oct-15 13:00N 33°44' W 118°16'3 6.0
2017-Oct-15 12:30N 33°41' W 118°14'1 1.6
2017-Oct-15 12:00N 33°42' W 118°14'2 4.7
2017-Oct-15 11:30N 33°44' W 118°16'0 0.0
2017-Oct-15 11:00N 33°44' W 118°16'0 0.0
2017-Oct-15 10:30N 33°44' W 118°16'0 0.0
2017-Oct-15 10:00N 33°44' W 118°16'0 0.0
2017-Oct-15 09:30N 33°44' W 118°16'0 0.0
2017-Oct-15 09:00N 33°44' W 118°16'0 0.0
2017-Oct-15 08:30N 33°44' W 118°16'0 0.0
2017-Oct-15 08:00N 33°44' W 118°16'0 0.0
2017-Oct-15 07:30N 33°44' W 118°16'0 0.0
2017-Oct-15 07:00N 33°44' W 118°16'0 0.0
2017-Oct-15 06:30N 33°44' W 118°16'1 2.5
2017-Oct-15 06:00N 33°43' W 118°15'2 3.2
2017-Oct-15 05:30N 33°44' W 118°13'0 0.0
2017-Oct-15 04:58N 33°44' W 118°13'1 2.9
2017-Oct-15 04:28N 33°45' W 118°13'0 0.0
2017-Oct-15 04:00N 33°45' W 118°13'0 0.0
2017-Oct-15 03:29N 33°45' W 118°13'0 0.0
2017-Oct-15 03:00N 33°45' W 118°13'0 0.0
2017-Oct-15 02:30N 33°45' W 118°13'0 0.0
2017-Oct-15 02:00N 33°45' W 118°13'0 0.5
2017-Oct-15 01:30N 33°45' W 118°13'0 0.2
2017-Oct-15 01:00N 33°45' W 118°13'0 0.4
2017-Oct-15 00:30N 33°45' W 118°13'2 3.0
2017-Oct-15 00:00N 33°44' W 118°13'0 0.3
2017-Oct-14 23:30N 33°44' W 118°13'2 4.2
2017-Oct-14 23:00N 33°43' W 118°16'1 1.7
2017-Oct-14 22:30N 33°44' W 118°16'0 0.2
2017-Oct-14 22:00N 33°44' W 118°16'0 0.0
2017-Oct-14 21:13N 33°44' W 118°16'0 0.0
2017-Oct-14 21:00N 33°44' W 118°16'0 0.0
2017-Oct-14 20:30N 33°44' W 118°16'0 0.0
2017-Oct-14 20:00N 33°44' W 118°16'0 0.0
2017-Oct-14 19:30N 33°44' W 118°16'0 0.0
2017-Oct-14 19:00N 33°44' W 118°16'0 0.0
2017-Oct-14 18:30N 33°44' W 118°16'1 1.2
2017-Oct-14 17:59N 33°44' W 118°16'1 2.4
2017-Oct-14 17:30N 33°45' W 118°17'1 1.1
2017-Oct-14 17:00N 33°44' W 118°17'3 5.6
2017-Oct-14 16:27N 33°44' W 118°13'0 0.4
2017-Oct-14 16:00N 33°44' W 118°13'1 0.9
2017-Oct-14 14:51N 33°45' W 118°12'0 0.0
2017-Oct-14 14:22N 33°45' W 118°12'0 1.3
2017-Oct-14 14:00N 33°45' W 118°12'0 0.7
2017-Oct-14 13:30N 33°45' W 118°12'1 2.3
2017-Oct-14 13:00N 33°44' W 118°11'3 5.9
2017-Oct-14 12:30N 33°43' W 118°15'1 2.4
2017-Oct-14 12:00N 33°44' W 118°16'0 0.0
2017-Oct-14 11:29N 33°44' W 118°16'1 1.3
2017-Oct-14 11:00N 33°43' W 118°16'2 3.7
2017-Oct-14 10:28N 33°45' W 118°16'1 1.4
2017-Oct-14 09:59N 33°45' W 118°16'1 2.6
2017-Oct-14 09:30N 33°44' W 118°17'1 1.4
2017-Oct-14 08:51N 33°44' W 118°16'0 0.0
2017-Oct-14 08:30N 33°44' W 118°16'0 0.0
2017-Oct-14 07:50N 33°44' W 118°16'0 0.0
2017-Oct-14 07:26N 33°44' W 118°16'0 0.5
2017-Oct-14 07:00N 33°44' W 118°16'2 3.3
2017-Oct-14 06:30N 33°45' W 118°16'1 1.7
2017-Oct-14 06:00N 33°46' W 118°15'2 4.7
2017-Oct-14 05:30N 33°44' W 118°16'1 1.2
2017-Oct-14 05:00N 33°44' W 118°16'0 0.0
2017-Oct-14 04:30N 33°44' W 118°16'0 0.0
2017-Oct-14 04:00N 33°44' W 118°16'0 0.1
2017-Oct-14 03:30N 33°44' W 118°16'1 2.9
2017-Oct-14 03:00N 33°43' W 118°14'2 4.7
2017-Oct-14 02:30N 33°45' W 118°12'0 0.1
2017-Oct-14 02:00N 33°45' W 118°12'2 4.6
2017-Oct-14 01:29N 33°44' W 118°10'0 0.1
2017-Oct-14 01:00N 33°44' W 118°10'2 3.3
2017-Oct-14 00:30N 33°44' W 118°12'3 6.4
2017-Oct-14 00:00N 33°44' W 118°16'0 0.0
2017-Oct-13 23:30N 33°44' W 118°16'0 0.0
2017-Oct-13 23:00N 33°44' W 118°16'0 0.0
2017-Oct-13 21:27N 33°44' W 118°16'0 0.0
2017-Oct-13 20:13N 33°44' W 118°16'0 0.0
2017-Oct-13 19:56N 33°44' W 118°16'0 0.0
2017-Oct-13 19:11N 33°44' W 118°16'0 0.0
2017-Oct-13 18:41N 33°44' W 118°16'0 0.0
2017-Oct-13 18:27N 33°44' W 118°16'0 0.0
2017-Oct-13 17:58N 33°44' W 118°16'0 0.0
2017-Oct-13 17:29N 33°44' W 118°16'0 0.0
2017-Oct-13 16:59N 33°44' W 118°16'0 0.2
2017-Oct-13 16:28N 33°44' W 118°16'4 5.7
2017-Oct-13 15:50N 33°44' W 118°11'1 1.6
2017-Oct-13 14:55N 33°44' W 118°10'3 6.5
2017-Oct-13 14:30N 33°45' W 118°13'2 2.6
2017-Oct-13 13:51N 33°46' W 118°13'0 0.4
2017-Oct-13 13:30N 33°46' W 118°13'1 2.7
2017-Oct-13 13:01N 33°45' W 118°13'2 3.3
2017-Oct-13 12:30N 33°44' W 118°12'0 0.0
2017-Oct-13 12:00N 33°44' W 118°12'1 1.3
2017-Oct-13 11:24N 33°44' W 118°13'2 4.9
2017-Oct-13 11:00N 33°46' W 118°13'0 0.9
2017-Oct-13 10:30N 33°46' W 118°13'0 0.7
2017-Oct-13 09:59N 33°46' W 118°14'0 0.6
2017-Oct-13 09:30N 33°46' W 118°13'3 7.0
2017-Oct-13 09:00N 33°43' W 118°16'1 1.7
2017-Oct-13 08:30N 33°44' W 118°16'0 0.0
2017-Oct-13 08:00N 33°44' W 118°16'0 0.0
2017-Oct-13 07:30N 33°44' W 118°16'0 0.0
2017-Oct-13 06:56N 33°44' W 118°16'0 0.0
2017-Oct-13 06:30N 33°44' W 118°16'0 0.0
2017-Oct-13 06:00N 33°44' W 118°16'0 0.0
2017-Oct-13 05:30N 33°44' W 118°16'0 0.2
2017-Oct-13 05:00N 33°44' W 118°16'0 0.1
2017-Oct-13 04:30N 33°44' W 118°16'0 0.1
2017-Oct-13 04:00N 33°44' W 118°16'0 0.0
2017-Oct-13 03:14N 33°44' W 118°16'0 0.0
2017-Oct-13 03:00N 33°44' W 118°16'0 0.0
2017-Oct-13 02:30N 33°44' W 118°16'0 0.0
2017-Oct-13 02:00N 33°44' W 118°16'0 0.0
2017-Oct-13 01:30N 33°44' W 118°16'0 0.3
2017-Oct-13 00:54N 33°44' W 118°16'0 1.1
2017-Oct-13 00:30N 33°44' W 118°15'0 0.6
2017-Oct-13 00:00N 33°44' W 118°16'1 1.4
2017-Oct-12 23:30N 33°43' W 118°16'2 3.2
2017-Oct-12 23:00N 33°45' W 118°16'1 1.9
2017-Oct-12 22:25N 33°44' W 118°16'2 4.6
2017-Oct-12 21:54N 33°43' W 118°13'2 4.7
2017-Oct-12 21:30N 33°44' W 118°11'1 1.4
2017-Oct-12 20:55N 33°44' W 118°10'4 8.8
2017-Oct-12 20:25N 33°43' W 118°15'1 2.8
2017-Oct-12 19:59N 33°44' W 118°16'0 0.0
2017-Oct-12 19:28N 33°44' W 118°16'1 1.4
2017-Oct-12 19:00N 33°44' W 118°16'2 3.6
2017-Oct-12 18:26N 33°46' W 118°16'1 1.8
2017-Oct-12 18:00N 33°45' W 118°16'2 4.6
2017-Oct-12 17:30N 33°43' W 118°16'1 2.4
2017-Oct-12 17:00N 33°42' W 118°15'2 4.5
2017-Oct-12 16:30N 33°40' W 118°13'3 5.0
2017-Oct-12 15:58N 33°43' W 118°15'2 5.1
2017-Oct-12 15:30N 33°45' W 118°17'0 0.2
2017-Oct-12 14:28N 33°45' W 118°16'3 1.2
2017-Oct-12 12:05N 33°45' W 118°13'2 9.7
2017-Oct-12 11:53N 33°43' W 118°14'1 3.0
2017-Oct-12 11:29N 33°44' W 118°15'0 0.2
2017-Oct-12 11:00N 33°44' W 118°15'0 0.5
2017-Oct-12 10:16N 33°44' W 118°16'0 0.0
2017-Oct-12 09:58N 33°44' W 118°16'0 0.0
2017-Oct-12 09:27N 33°44' W 118°16'0 0.0
2017-Oct-12 08:55N 33°44' W 118°16'0 0.0
2017-Oct-12 08:30N 33°44' W 118°16'0 0.0
2017-Oct-12 08:00N 33°44' W 118°16'0 0.0
2017-Oct-12 07:30N 33°44' W 118°16'0 0.0
2017-Oct-12 07:00N 33°44' W 118°16'0 0.0
2017-Oct-12 06:30N 33°44' W 118°16'0 0.0
2017-Oct-12 06:00N 33°44' W 118°16'0 0.2
2017-Oct-12 05:19N 33°44' W 118°16'5 5.8
2017-Oct-12 04:26N 33°44' W 118°10'0 0.8
2017-Oct-12 03:55N 33°44' W 118°10'2 4.8
2017-Oct-12 03:28N 33°44' W 118°13'0 0.1
2017-Oct-12 02:54N 33°44' W 118°13'0 0.6
2017-Oct-12 02:31N 33°44' W 118°12'1 1.5
2017-Oct-12 01:54N 33°45' W 118°13'1 1.7
2017-Oct-12 01:27N 33°46' W 118°13'0 0.0
2017-Oct-12 01:00N 33°46' W 118°13'0 0.0
2017-Oct-12 00:30N 33°46' W 118°13'0 0.0
2017-Oct-12 00:00N 33°46' W 118°13'0 0.1
2017-Oct-11 23:30N 33°46' W 118°13'1 1.9
2017-Oct-11 23:00N 33°45' W 118°14'1 2.4
2017-Oct-11 22:30N 33°45' W 118°13'1 2.8
2017-Oct-11 22:00N 33°44' W 118°12'1 1.7
2017-Oct-11 21:30N 33°44' W 118°13'3 5.1
2017-Oct-11 21:00N 33°44' W 118°16'0 0.1
2017-Oct-11 20:30N 33°44' W 118°16'0 0.0
2017-Oct-11 19:59N 33°44' W 118°16'0 0.0
2017-Oct-11 19:30N 33°44' W 118°16'0 0.0
2017-Oct-11 18:57N 33°44' W 118°16'0 0.0
2017-Oct-11 18:29N 33°44' W 118°16'2 3.1
2017-Oct-11 18:00N 33°43' W 118°14'2 4.2
2017-Oct-11 17:30N 33°45' W 118°13'0 0.0
2017-Oct-11 17:00N 33°45' W 118°13'1 0.1
2017-Oct-11 00:00N 33°44' W 118°13'1 2.5
2017-Oct-10 23:30N 33°45' W 118°13'0 0.4
2017-Oct-10 22:57N 33°45' W 118°13'0 0.0
2017-Oct-10 22:27N 33°45' W 118°13'0 0.4
2017-Oct-10 22:00N 33°45' W 118°13'2 4.7
2017-Oct-10 21:30N 33°43' W 118°11'0 0.8
2017-Oct-10 21:00N 33°44' W 118°12'3 6.1
2017-Oct-10 20:30N 33°43' W 118°15'1 1.8
2017-Oct-10 20:00N 33°43' W 118°16'1 2.7
2017-Oct-10 19:30N 33°45' W 118°16'1 2.0
2017-Oct-10 19:00N 33°44' W 118°16'0 0.0
2017-Oct-10 18:30N 33°44' W 118°16'0 0.8
2017-Oct-10 18:00N 33°44' W 118°15'1 1.1
2017-Oct-10 17:30N 33°44' W 118°16'3 6.9
2017-Oct-10 17:00N 33°44' W 118°12'2 4.0
2017-Oct-10 16:31N 33°45' W 118°13'0 0.9
2017-Oct-10 16:00N 33°45' W 118°13'0 0.2
2017-Oct-10 15:30N 33°45' W 118°13'1 1.3
2017-Oct-10 15:00N 33°45' W 118°13'2 2.2
2017-Oct-10 14:00N 33°46' W 118°15'0 0.2
2017-Oct-10 13:30N 33°46' W 118°15'1 1.9
2017-Oct-10 13:00N 33°45' W 118°16'1 2.3
2017-Oct-10 12:30N 33°44' W 118°17'2 4.9
2017-Oct-10 12:00N 33°44' W 118°14'2 3.4
2017-Oct-10 11:30N 33°45' W 118°13'0 0.0
2017-Oct-10 11:00N 33°45' W 118°13'0 0.0
2017-Oct-10 10:30N 33°46' W 118°13'0 0.0
2017-Oct-10 10:00N 33°46' W 118°13'3 5.8
2017-Oct-10 09:30N 33°43' W 118°15'1 2.5
2017-Oct-10 09:00N 33°44' W 118°16'0 0.0
2017-Oct-10 08:30N 33°44' W 118°16'0 0.0
2017-Oct-10 08:00N 33°44' W 118°16'0 0.0
2017-Oct-10 07:30N 33°44' W 118°16'0 0.0
2017-Oct-10 07:00N 33°44' W 118°16'0 0.0
2017-Oct-10 06:30N 33°44' W 118°16'0 0.0
2017-Oct-10 06:00N 33°44' W 118°16'0 0.0
2017-Oct-10 05:30N 33°44' W 118°16'0 0.0
2017-Oct-10 05:00N 33°44' W 118°16'0 0.0
2017-Oct-10 04:30N 33°44' W 118°16'0 0.0
2017-Oct-10 04:00N 33°44' W 118°16'0 0.0
2017-Oct-10 03:30N 33°44' W 118°16'0 0.0
2017-Oct-10 03:00N 33°44' W 118°16'0 0.0
2017-Oct-10 02:30N 33°44' W 118°16'0 0.0
2017-Oct-10 02:00N 33°44' W 118°16'0 0.0
2017-Oct-10 01:30N 33°44' W 118°16'0 0.0
2017-Oct-10 01:00N 33°44' W 118°16'1 1.0
2017-Oct-10 00:30N 33°44' W 118°15'0 0.7
2017-Oct-10 00:01N 33°44' W 118°15'2 3.7
2017-Oct-09 23:31N 33°42' W 118°15'1 1.3
2017-Oct-09 23:00N 33°43' W 118°15'0 0.1
2017-Oct-09 22:30N 33°43' W 118°15'1 1.4
2017-Oct-09 22:01N 33°43' W 118°16'1 1.7
2017-Oct-09 21:31N 33°44' W 118°15'1 2.9
2017-Oct-09 21:00N 33°42' W 118°15'2 3.1
2017-Oct-09 20:30N 33°44' W 118°16'0 0.0
2017-Oct-09 20:00N 33°44' W 118°16'0 0.0
2017-Oct-09 19:29N 33°44' W 118°16'0 0.0
2017-Oct-09 19:00N 33°44' W 118°16'0 0.0
2017-Oct-09 18:30N 33°44' W 118°16'0 0.0
2017-Oct-09 18:00N 33°44' W 118°16'0 0.0
2017-Oct-09 17:30N 33°44' W 118°16'0 0.0
2017-Oct-09 17:00N 33°44' W 118°16'0 0.0
2017-Oct-09 16:30N 33°44' W 118°16'0 0.0
2017-Oct-09 15:59N 33°44' W 118°16'0 0.0
2017-Oct-09 15:22N 33°44' W 118°16'3 0.4
2017-Oct-09 08:50N 33°45' W 118°13'  

Dump ship's entire track history